Hauptseite
METAR-TAF:

METAR-TAF

Flughäfen :

Fliegerhorst Holzdorf

Holzdorf, Deutschland

Breite: 51-46N, Länge: 013-11E, Höhe: 79 m

Beobachtung

Neuester Wetterbericht von vor 16 Minuten, um 15:20 UTC
Wind 2 kt aus Süd
Temperatur 18°C
Luftfeuchtigkeit 52%
Luftdruck 1018 hPa
Sichtweite 10 km oder mehr
Leicht bewölkt in der Höhe von 25000 ft

METAR: ETSH 171520Z 18002KT 9999 FEW250 18/08 Q1018 BLU+BLU+ TEMPO WHT

Zeit: 17:36 (15:36 UTC)

Prognose

Neuester Wetterbericht von vor 2 Stunden und 28 Minuten, um 13:08 UTC
Gültige Prognose vom 17 um 14 UTC bis 17 um 23 UTC
Wind 2 kt aus unterschiedlichen Richtungen
Sichtweite: 8000 m
Leicht bewölkt in der Höhe von 10000 ft
Zeitweise
vom 17 um 16 UTC bis 17 um 23 UTC
Wind 1 kt aus unterschiedlichen Richtungen
Sichtweite: 5000 m
Leicht bewölkt in der Höhe von 10000 ft
feuchter Dunst

TAF: ETSH 171308Z 1714/1723 VRB02KT 8000 NSW FEW100 TEMPO 1716/1723 VRB01KT 5000 BR FEW100

Wetterbeobachtungen und Prognosen von mehr als 4000 Flughäfen (METAR und TAF Bericht).

Die verfügbaren Stationen werden durch gelbe und rote Markierungen auf der Karte dargestellt.

Führen Sie die Maus auf sie, um den Namen der Station zu sehen.

Darauf klicken, um die Beobachtung von Wetterbeobachtungen und Prognosen zu sehen.

Um die Karte zu ändern : klicken Sie auf den grünen Tasten mit einem schwarzen Kreuz Zum Vergrößern, auf den grünen Button mit einem Gedankenstrich zu verkleinern, oder auf die grünen Pfeile für benachbarte Karten.


METAR-TAF: